sensor_id;sensor_type;location;lat;lon;timestamp;P1;durP1;ratioP1;P2;durP2;ratioP2
52138;SDS011;38131;53.256;6.460;2023-03-01T08:23:55;18.42;;;10.57;;
52138;SDS011;38131;53.256;6.460;2023-03-01T08:26:21;23.40;;;12.77;;
52138;SDS011;38131;53.256;6.460;2023-03-01T08:28:48;17.25;;;10.57;;
52138;SDS011;38131;53.256;6.460;2023-03-01T08:31:15;21.98;;;12.70;;
52138;SDS011;38131;53.256;6.460;2023-03-01T08:33:43;19.55;;;12.55;;
52138;SDS011;38131;53.256;6.460;2023-03-01T08:36:09;21.77;;;11.88;;
52138;SDS011;38131;53.256;6.460;2023-03-01T08:38:40;21.67;;;13.38;;
52138;SDS011;38131;53.256;6.460;2023-03-01T08:41:06;25.02;;;14.07;;
52138;SDS011;38131;53.256;6.460;2023-03-01T08:43:32;28.77;;;16.35;;
52138;SDS011;38131;53.256;6.460;2023-03-01T08:45:59;27.02;;;15.82;;
52138;SDS011;38131;53.256;6.460;2023-03-01T08:48:25;33.97;;;18.35;;
52138;SDS011;38131;53.256;6.460;2023-03-01T08:50:51;32.25;;;19.00;;
52138;SDS011;38131;53.256;6.460;2023-03-01T08:53:20;35.42;;;20.05;;
52138;SDS011;38131;53.256;6.460;2023-03-01T08:55:46;38.13;;;20.95;;
52138;SDS011;38131;53.256;6.460;2023-03-01T08:58:12;38.80;;;22.50;;
52138;SDS011;38131;53.256;6.460;2023-03-01T09:00:38;42.63;;;22.73;;
52138;SDS011;38131;53.256;6.460;2023-03-01T09:03:05;42.35;;;23.25;;
52138;SDS011;38131;53.256;6.460;2023-03-01T09:05:32;41.08;;;22.35;;
52138;SDS011;38131;53.256;6.460;2023-03-01T09:07:59;41.95;;;22.23;;
52138;SDS011;38131;53.256;6.460;2023-03-01T09:10:25;41.13;;;23.48;;
52138;SDS011;38131;53.256;6.460;2023-03-01T09:12:51;42.22;;;23.73;;
52138;SDS011;38131;53.256;6.460;2023-03-01T09:15:18;43.33;;;23.55;;
52138;SDS011;38131;53.256;6.460;2023-03-01T09:17:44;47.42;;;24.13;;
52138;SDS011;38131;53.256;6.460;2023-03-01T09:20:10;45.58;;;27.17;;
52138;SDS011;38131;53.256;6.460;2023-03-01T09:22:36;50.40;;;27.58;;
52138;SDS011;38131;53.256;6.460;2023-03-01T09:25:06;47.40;;;26.35;;
52138;SDS011;38131;53.256;6.460;2023-03-01T09:27:32;53.08;;;28.08;;
52138;SDS011;38131;53.256;6.460;2023-03-01T09:30:04;47.67;;;27.67;;
52138;SDS011;38131;53.256;6.460;2023-03-01T09:32:30;45.58;;;26.83;;
52138;SDS011;38131;53.256;6.460;2023-03-01T09:34:56;41.33;;;24.48;;
52138;SDS011;38131;53.256;6.460;2023-03-01T09:37:59;42.85;;;24.30;;
52138;SDS011;38131;53.256;6.460;2023-03-01T09:40:41;44.40;;;24.05;;
52138;SDS011;38131;53.256;6.460;2023-03-01T09:46:43;38.92;;;21.38;;
52138;SDS011;38131;53.256;6.460;2023-03-01T09:49:20;24.85;;;15.00;;
52138;SDS011;38131;53.256;6.460;2023-03-01T09:52:03;26.83;;;16.00;;
52138;SDS011;38131;53.256;6.460;2023-03-01T09:55:20;26.42;;;16.77;;
52138;SDS011;38131;53.256;6.460;2023-03-01T09:58:46;26.60;;;16.17;;
52138;SDS011;38131;53.256;6.460;2023-03-01T10:06:48;22.15;;;14.18;;
52138;SDS011;38131;53.256;6.460;2023-03-01T10:09:42;24.05;;;14.98;;
52138;SDS011;38131;53.256;6.460;2023-03-01T10:12:18;17.77;;;11.90;;
52138;SDS011;38131;53.256;6.460;2023-03-01T10:15:05;27.83;;;15.50;;
52138;SDS011;38131;53.256;6.460;2023-03-01T10:17:48;24.35;;;15.05;;
52138;SDS011;38131;53.256;6.460;2023-03-01T10:20:18;19.83;;;12.82;;
52138;SDS011;38131;53.256;6.460;2023-03-01T10:22:49;21.38;;;13.48;;
52138;SDS011;38131;53.256;6.460;2023-03-01T10:25:41;30.10;;;16.42;;
52138;SDS011;38131;53.256;6.460;2023-03-01T10:28:16;24.55;;;15.90;;
52138;SDS011;38131;53.256;6.460;2023-03-01T10:30:45;26.65;;;15.85;;
52138;SDS011;38131;53.256;6.460;2023-03-01T10:36:53;29.33;;;15.77;;
52138;SDS011;38131;53.256;6.460;2023-03-01T10:43:04;24.58;;;16.15;;
52138;SDS011;38131;53.256;6.460;2023-03-01T10:49:21;29.33;;;16.83;;
52138;SDS011;38131;53.256;6.460;2023-03-01T12:10:44;16.67;;;11.50;;
52138;SDS011;38131;53.256;6.460;2023-03-01T13:29:52;16.45;;;11.50;;
52138;SDS011;38131;53.256;6.460;2023-03-01T14:21:36;20.30;;;10.57;;
52138;SDS011;38131;53.256;6.460;2023-03-01T14:27:10;21.20;;;10.98;;
52138;SDS011;38131;53.256;6.460;2023-03-01T14:37:40;18.65;;;11.18;;
52138;SDS011;38131;53.256;6.460;2023-03-01T14:43:20;18.13;;;10.05;;
52138;SDS011;38131;53.256;6.460;2023-03-01T14:46:44;18.20;;;10.65;;
52138;SDS011;38131;53.256;6.460;2023-03-01T14:57:25;12.63;;;9.95;;
52138;SDS011;38131;53.256;6.460;2023-03-01T15:00:05;15.38;;;9.75;;
52138;SDS011;38131;53.256;6.460;2023-03-01T15:03:14;15.87;;;10.23;;
52138;SDS011;38131;53.256;6.460;2023-03-01T15:10:03;17.75;;;10.07;;
52138;SDS011;38131;53.256;6.460;2023-03-01T15:34:44;18.75;;;9.75;;
52138;SDS011;38131;53.256;6.460;2023-03-01T15:56:15;19.63;;;13.07;;
52138;SDS011;38131;53.256;6.460;2023-03-01T16:02:13;20.85;;;14.32;;
52138;SDS011;38131;53.256;6.460;2023-03-01T16:05:08;20.67;;;14.15;;
52138;SDS011;38131;53.256;6.460;2023-03-01T16:15:49;21.42;;;13.38;;
52138;SDS011;38131;53.256;6.460;2023-03-01T16:25:07;19.63;;;13.60;;
52138;SDS011;38131;53.256;6.460;2023-03-01T16:27:59;22.02;;;13.73;;
52138;SDS011;38131;53.256;6.460;2023-03-01T16:39:05;18.75;;;12.32;;
52138;SDS011;38131;53.256;6.460;2023-03-01T16:42:10;18.17;;;12.57;;
52138;SDS011;38131;53.256;6.460;2023-03-01T16:53:03;16.98;;;11.32;;
52138;SDS011;38131;53.256;6.460;2023-03-01T16:55:34;17.23;;;11.93;;
52138;SDS011;38131;53.256;6.460;2023-03-01T17:00:53;17.50;;;12.48;;
52138;SDS011;38131;53.256;6.460;2023-03-01T17:03:49;16.95;;;11.48;;
52138;SDS011;38131;53.256;6.460;2023-03-01T17:13:38;17.05;;;11.73;;
52138;SDS011;38131;53.256;6.460;2023-03-01T17:16:20;20.75;;;11.75;;
52138;SDS011;38131;53.256;6.460;2023-03-01T17:21:49;20.55;;;11.52;;
52138;SDS011;38131;53.256;6.460;2023-03-01T17:25:17;19.05;;;11.18;;
52138;SDS011;38131;53.256;6.460;2023-03-01T17:29:00;19.95;;;11.45;;
52138;SDS011;38131;53.256;6.460;2023-03-01T17:35:56;19.73;;;10.90;;
52138;SDS011;38131;53.256;6.460;2023-03-01T17:42:37;17.88;;;11.55;;
52138;SDS011;38131;53.256;6.460;2023-03-01T17:48:57;13.63;;;10.18;;
52138;SDS011;38131;53.256;6.460;2023-03-01T17:55:15;13.90;;;10.13;;
52138;SDS011;38131;53.256;6.460;2023-03-01T18:00:44;17.50;;;11.13;;
52138;SDS011;38131;53.256;6.460;2023-03-01T18:03:27;19.25;;;11.88;;
52138;SDS011;38131;53.256;6.460;2023-03-01T18:06:25;17.67;;;11.63;;
52138;SDS011;38131;53.256;6.460;2023-03-01T18:09:31;16.20;;;12.23;;
52138;SDS011;38131;53.256;6.460;2023-03-01T18:12:50;18.40;;;11.80;;
52138;SDS011;38131;53.256;6.460;2023-03-01T18:15:22;17.25;;;11.40;;
52138;SDS011;38131;53.256;6.460;2023-03-01T18:18:51;18.23;;;12.88;;
52138;SDS011;38131;53.256;6.460;2023-03-01T18:26:04;16.08;;;11.85;;
52138;SDS011;38131;53.256;6.460;2023-03-01T18:36:16;18.98;;;12.40;;
52138;SDS011;38131;53.256;6.460;2023-03-01T18:42:57;14.68;;;11.57;;
52138;SDS011;38131;53.256;6.460;2023-03-01T18:45:32;18.35;;;11.45;;
52138;SDS011;38131;53.256;6.460;2023-03-01T18:58:33;19.25;;;13.48;;
52138;SDS011;38131;53.256;6.460;2023-03-01T19:11:04;14.02;;;10.95;;
52138;SDS011;38131;53.256;6.460;2023-03-01T19:20:55;17.92;;;12.63;;
52138;SDS011;38131;53.256;6.460;2023-03-01T19:28:07;20.83;;;12.80;;
52138;SDS011;38131;53.256;6.460;2023-03-01T19:34:35;15.45;;;11.82;;
52138;SDS011;38131;53.256;6.460;2023-03-01T19:37:47;17.50;;;12.55;;
52138;SDS011;38131;53.256;6.460;2023-03-01T19:40:16;18.25;;;12.57;;
52138;SDS011;38131;53.256;6.460;2023-03-01T19:43:28;18.27;;;13.40;;
52138;SDS011;38131;53.256;6.460;2023-03-01T19:46:08;17.70;;;12.82;;
52138;SDS011;38131;53.256;6.460;2023-03-01T19:59:13;14.90;;;11.88;;
52138;SDS011;38131;53.256;6.460;2023-03-01T20:02:10;19.60;;;12.40;;
52138;SDS011;38131;53.256;6.460;2023-03-01T20:07:13;18.17;;;12.13;;
52138;SDS011;38131;53.256;6.460;2023-03-01T20:09:55;19.05;;;11.68;;
52138;SDS011;38131;53.256;6.460;2023-03-01T20:12:34;16.63;;;11.77;;
52138;SDS011;38131;53.256;6.460;2023-03-01T20:15:06;15.50;;;11.27;;
52138;SDS011;38131;53.256;6.460;2023-03-01T20:17:35;17.08;;;12.50;;
52138;SDS011;38131;53.256;6.460;2023-03-01T20:20:33;18.20;;;13.05;;
52138;SDS011;38131;53.256;6.460;2023-03-01T20:23:26;20.83;;;12.95;;
52138;SDS011;38131;53.256;6.460;2023-03-01T20:26:03;22.35;;;14.25;;
52138;SDS011;38131;53.256;6.460;2023-03-01T20:28:44;21.77;;;15.15;;
52138;SDS011;38131;53.256;6.460;2023-03-01T20:34:30;20.55;;;15.52;;
52138;SDS011;38131;53.256;6.460;2023-03-01T20:37:28;21.63;;;15.45;;
52138;SDS011;38131;53.256;6.460;2023-03-01T20:40:31;21.40;;;15.10;;
52138;SDS011;38131;53.256;6.460;2023-03-01T20:42:58;23.67;;;16.42;;
52138;SDS011;38131;53.256;6.460;2023-03-01T20:48:15;22.00;;;15.23;;
52138;SDS011;38131;53.256;6.460;2023-03-01T21:00:52;22.70;;;13.90;;
52138;SDS011;38131;53.256;6.460;2023-03-01T21:03:47;20.67;;;13.77;;
52138;SDS011;38131;53.256;6.460;2023-03-01T21:06:14;22.33;;;14.02;;
52138;SDS011;38131;53.256;6.460;2023-03-01T21:09:00;20.38;;;13.98;;
52138;SDS011;38131;53.256;6.460;2023-03-01T21:11:32;20.27;;;13.15;;
52138;SDS011;38131;53.256;6.460;2023-03-01T21:14:07;24.40;;;14.77;;
52138;SDS011;38131;53.256;6.460;2023-03-01T21:16:36;19.83;;;13.65;;
52138;SDS011;38131;53.256;6.460;2023-03-01T21:19:20;21.77;;;14.40;;
52138;SDS011;38131;53.256;6.460;2023-03-01T21:21:56;18.30;;;13.48;;
52138;SDS011;38131;53.256;6.460;2023-03-01T21:24:47;20.77;;;13.48;;
52138;SDS011;38131;53.256;6.460;2023-03-01T21:27:17;20.15;;;13.15;;
52138;SDS011;38131;53.256;6.460;2023-03-01T21:30:35;18.98;;;13.70;;
52138;SDS011;38131;53.256;6.460;2023-03-01T21:33:18;19.65;;;12.70;;
52138;SDS011;38131;53.256;6.460;2023-03-01T21:35:47;18.75;;;12.25;;
52138;SDS011;38131;53.256;6.460;2023-03-01T21:38:33;17.30;;;12.00;;
52138;SDS011;38131;53.256;6.460;2023-03-01T21:41:14;15.10;;;11.65;;
52138;SDS011;38131;53.256;6.460;2023-03-01T21:43:56;18.00;;;11.15;;
52138;SDS011;38131;53.256;6.460;2023-03-01T21:46:36;18.20;;;12.55;;
52138;SDS011;38131;53.256;6.460;2023-03-01T21:51:57;16.45;;;11.68;;
52138;SDS011;38131;53.256;6.460;2023-03-01T21:54:23;17.35;;;12.05;;
52138;SDS011;38131;53.256;6.460;2023-03-01T21:57:05;16.73;;;12.00;;
52138;SDS011;38131;53.256;6.460;2023-03-01T21:59:35;14.73;;;11.10;;
52138;SDS011;38131;53.256;6.460;2023-03-01T22:02:05;18.27;;;13.65;;
52138;SDS011;38131;53.256;6.460;2023-03-01T22:04:32;22.27;;;13.68;;
52138;SDS011;38131;53.256;6.460;2023-03-01T22:07:04;19.15;;;13.02;;
52138;SDS011;38131;53.256;6.460;2023-03-01T22:12:48;17.27;;;13.35;;
52138;SDS011;38131;53.256;6.460;2023-03-01T22:15:17;19.63;;;14.15;;
52138;SDS011;38131;53.256;6.460;2023-03-01T22:18:15;19.23;;;13.52;;
52138;SDS011;38131;53.256;6.460;2023-03-01T22:20:59;20.70;;;12.38;;
52138;SDS011;38131;53.256;6.460;2023-03-01T22:23:56;19.70;;;14.00;;
52138;SDS011;38131;53.256;6.460;2023-03-01T22:26:42;19.77;;;13.85;;
52138;SDS011;38131;53.256;6.460;2023-03-01T22:29:48;18.92;;;13.20;;
52138;SDS011;38131;53.256;6.460;2023-03-01T22:35:57;17.95;;;13.40;;
52138;SDS011;38131;53.256;6.460;2023-03-01T22:38:30;17.88;;;13.50;;
52138;SDS011;38131;53.256;6.460;2023-03-01T22:44:54;16.67;;;13.07;;
52138;SDS011;38131;53.256;6.460;2023-03-01T22:50:58;17.95;;;13.73;;
52138;SDS011;38131;53.256;6.460;2023-03-01T22:53:28;18.35;;;12.90;;
52138;SDS011;38131;53.256;6.460;2023-03-01T22:59:59;18.63;;;12.95;;
52138;SDS011;38131;53.256;6.460;2023-03-01T23:05:18;18.45;;;12.68;;
52138;SDS011;38131;53.256;6.460;2023-03-01T23:10:55;18.23;;;13.45;;
52138;SDS011;38131;53.256;6.460;2023-03-01T23:16:30;25.05;;;13.95;;
52138;SDS011;38131;53.256;6.460;2023-03-01T23:19:13;19.13;;;13.43;;
52138;SDS011;38131;53.256;6.460;2023-03-01T23:21:42;19.25;;;13.63;;
52138;SDS011;38131;53.256;6.460;2023-03-01T23:24:27;19.50;;;13.50;;
52138;SDS011;38131;53.256;6.460;2023-03-01T23:27:19;19.98;;;13.45;;
52138;SDS011;38131;53.256;6.460;2023-03-01T23:29:46;20.38;;;13.60;;
52138;SDS011;38131;53.256;6.460;2023-03-01T23:32:17;21.20;;;13.00;;
52138;SDS011;38131;53.256;6.460;2023-03-01T23:34:51;18.85;;;12.57;;
52138;SDS011;38131;53.256;6.460;2023-03-01T23:37:20;18.23;;;12.75;;
52138;SDS011;38131;53.256;6.460;2023-03-01T23:42:46;14.95;;;9.90;;
52138;SDS011;38131;53.256;6.460;2023-03-01T23:45:12;14.23;;;9.30;;
52138;SDS011;38131;53.256;6.460;2023-03-01T23:47:41;12.65;;;9.63;;
52138;SDS011;38131;53.256;6.460;2023-03-01T23:50:08;9.77;;;8.77;;
52138;SDS011;38131;53.256;6.460;2023-03-01T23:52:40;10.32;;;8.27;;
52138;SDS011;38131;53.256;6.460;2023-03-01T23:55:10;13.18;;;8.77;;
52138;SDS011;38131;53.256;6.460;2023-03-01T23:58:00;8.40;;;7.50;;
